sensor_id;sensor_type;location;lat;lon;timestamp;P1;durP1;ratioP1;P2;durP2;ratioP2
7585;SDS011;12459;42.646;23.292;2023-04-24T00:01:09;12.53;;;11.87;;
7585;SDS011;12459;42.646;23.292;2023-04-24T00:16:11;11.80;;;11.20;;
7585;SDS011;12459;42.646;23.292;2023-04-24T00:31:13;11.77;;;11.17;;
7585;SDS011;12459;42.646;23.292;2023-04-24T00:46:15;11.57;;;10.97;;
7585;SDS011;12459;42.646;23.292;2023-04-24T01:01:18;11.90;;;11.30;;
7585;SDS011;12459;42.646;23.292;2023-04-24T01:16:22;11.03;;;10.43;;
7585;SDS011;12459;42.646;23.292;2023-04-24T01:31:24;11.47;;;10.87;;
7585;SDS011;12459;42.646;23.292;2023-04-24T01:46:26;11.43;;;10.83;;
7585;SDS011;12459;42.646;23.292;2023-04-24T02:01:29;11.40;;;10.80;;
7585;SDS011;12459;42.646;23.292;2023-04-24T02:16:36;10.30;;;9.70;;
7585;SDS011;12459;42.646;23.292;2023-04-24T02:31:37;9.00;;;8.50;;
7585;SDS011;12459;42.646;23.292;2023-04-24T02:46:39;9.70;;;9.20;;
7585;SDS011;12459;42.646;23.292;2023-04-24T03:01:43;8.20;;;7.70;;
7585;SDS011;12459;42.646;23.292;2023-04-24T03:16:44;8.80;;;8.30;;
7585;SDS011;12459;42.646;23.292;2023-04-24T03:31:46;9.30;;;8.80;;
7585;SDS011;12459;42.646;23.292;2023-04-24T03:46:48;8.83;;;8.33;;
7585;SDS011;12459;42.646;23.292;2023-04-24T04:01:49;9.67;;;9.13;;
7585;SDS011;12459;42.646;23.292;2023-04-24T04:16:51;8.97;;;8.47;;
7585;SDS011;12459;42.646;23.292;2023-04-24T04:31:55;10.03;;;9.47;;
7585;SDS011;12459;42.646;23.292;2023-04-24T04:46:56;10.37;;;9.77;;
7585;SDS011;12459;42.646;23.292;2023-04-24T05:01:58;11.33;;;10.73;;
7585;SDS011;12459;42.646;23.292;2023-04-24T05:17:01;9.43;;;8.90;;
7585;SDS011;12459;42.646;23.292;2023-04-24T05:32:03;10.80;;;10.20;;
7585;SDS011;12459;42.646;23.292;2023-04-24T05:47:04;10.97;;;10.37;;
7585;SDS011;12459;42.646;23.292;2023-04-24T06:02:06;13.03;;;12.33;;
7585;SDS011;12459;42.646;23.292;2023-04-24T06:17:08;12.77;;;12.07;;
7585;SDS011;12459;42.646;23.292;2023-04-24T06:32:10;15.57;;;14.77;;
7585;SDS011;12459;42.646;23.292;2023-04-24T06:47:12;16.27;;;15.47;;
7585;SDS011;12459;42.646;23.292;2023-04-24T07:02:17;15.63;;;14.83;;
7585;SDS011;12459;42.646;23.292;2023-04-24T07:17:18;17.83;;;16.93;;
7585;SDS011;12459;42.646;23.292;2023-04-24T07:32:20;21.67;;;20.63;;
7585;SDS011;12459;42.646;23.292;2023-04-24T07:47:22;17.80;;;16.90;;
7585;SDS011;12459;42.646;23.292;2023-04-24T08:02:24;17.17;;;16.30;;
7585;SDS011;12459;42.646;23.292;2023-04-24T08:17:28;20.77;;;19.77;;
7585;SDS011;12459;42.646;23.292;2023-04-24T08:32:31;21.77;;;20.70;;
7585;SDS011;12459;42.646;23.292;2023-04-24T08:47:33;21.13;;;20.13;;
7585;SDS011;12459;42.646;23.292;2023-04-24T09:02:36;23.83;;;22.70;;
7585;SDS011;12459;42.646;23.292;2023-04-24T09:17:43;22.90;;;21.80;;
7585;SDS011;12459;42.646;23.292;2023-04-24T09:32:44;23.17;;;22.07;;
7585;SDS011;12459;42.646;23.292;2023-04-24T09:47:46;24.83;;;23.63;;
7585;SDS011;12459;42.646;23.292;2023-04-24T10:03:00;31.70;;;30.23;;
7585;SDS011;12459;42.646;23.292;2023-04-24T10:18:04;28.30;;;27.00;;
7585;SDS011;12459;42.646;23.292;2023-04-24T10:33:07;26.00;;;24.77;;
7585;SDS011;12459;42.646;23.292;2023-04-24T10:48:10;26.27;;;25.03;;
7585;SDS011;12459;42.646;23.292;2023-04-24T11:18:38;29.33;;;27.93;;
7585;SDS011;12459;42.646;23.292;2023-04-24T11:33:41;31.47;;;29.97;;
7585;SDS011;12459;42.646;23.292;2023-04-24T11:48:46;26.47;;;25.20;;
7585;SDS011;12459;42.646;23.292;2023-04-24T12:03:48;25.57;;;24.37;;
7585;SDS011;12459;42.646;23.292;2023-04-24T12:18:53;31.03;;;29.60;;
7585;SDS011;12459;42.646;23.292;2023-04-24T12:33:54;31.47;;;29.97;;
7585;SDS011;12459;42.646;23.292;2023-04-24T12:48:56;29.63;;;28.23;;
7585;SDS011;12459;42.646;23.292;2023-04-24T13:03:59;29.60;;;28.20;;
7585;SDS011;12459;42.646;23.292;2023-04-24T13:19:01;29.97;;;28.57;;
7585;SDS011;12459;42.646;23.292;2023-04-24T13:34:03;28.80;;;27.40;;
7585;SDS011;12459;42.646;23.292;2023-04-24T13:49:05;37.97;;;36.23;;
7585;SDS011;12459;42.646;23.292;2023-04-24T14:04:07;31.67;;;30.17;;
7585;SDS011;12459;42.646;23.292;2023-04-24T14:19:09;33.20;;;31.67;;
7585;SDS011;12459;42.646;23.292;2023-04-24T14:34:11;29.87;;;28.47;;
7585;SDS011;12459;42.646;23.292;2023-04-24T14:49:12;34.20;;;32.60;;
7585;SDS011;12459;42.646;23.292;2023-04-24T15:04:14;28.40;;;27.07;;
7585;SDS011;12459;42.646;23.292;2023-04-24T15:19:17;27.10;;;25.80;;
7585;SDS011;12459;42.646;23.292;2023-04-24T15:34:19;27.20;;;25.90;;
7585;SDS011;12459;42.646;23.292;2023-04-24T15:49:20;25.60;;;24.40;;
7585;SDS011;12459;42.646;23.292;2023-04-24T16:04:22;25.57;;;24.33;;
7585;SDS011;12459;42.646;23.292;2023-04-24T16:19:25;25.13;;;23.93;;
7585;SDS011;12459;42.646;23.292;2023-04-24T16:34:27;22.37;;;21.27;;
7585;SDS011;12459;42.646;23.292;2023-04-24T16:49:29;20.40;;;19.40;;
7585;SDS011;12459;42.646;23.292;2023-04-24T17:04:33;20.17;;;19.17;;
7585;SDS011;12459;42.646;23.292;2023-04-24T17:19:38;19.00;;;18.07;;
7585;SDS011;12459;42.646;23.292;2023-04-24T17:34:40;18.90;;;18.00;;
7585;SDS011;12459;42.646;23.292;2023-04-24T17:49:42;15.97;;;15.17;;
7585;SDS011;12459;42.646;23.292;2023-04-24T18:04:44;18.53;;;17.63;;
7585;SDS011;12459;42.646;23.292;2023-04-24T18:19:46;17.57;;;16.67;;
7585;SDS011;12459;42.646;23.292;2023-04-24T18:34:48;17.67;;;16.77;;
7585;SDS011;12459;42.646;23.292;2023-04-24T18:49:50;17.53;;;16.63;;
7585;SDS011;12459;42.646;23.292;2023-04-24T19:04:52;16.70;;;15.90;;
7585;SDS011;12459;42.646;23.292;2023-04-24T19:19:53;16.37;;;15.57;;
7585;SDS011;12459;42.646;23.292;2023-04-24T19:34:55;16.07;;;15.27;;
7585;SDS011;12459;42.646;23.292;2023-04-24T19:49:57;13.17;;;12.47;;
7585;SDS011;12459;42.646;23.292;2023-04-24T20:05:00;14.90;;;14.13;;
7585;SDS011;12459;42.646;23.292;2023-04-24T20:20:02;13.53;;;12.83;;
7585;SDS011;12459;42.646;23.292;2023-04-24T20:35:04;14.43;;;13.73;;
7585;SDS011;12459;42.646;23.292;2023-04-24T20:50:06;13.07;;;12.37;;
7585;SDS011;12459;42.646;23.292;2023-04-24T21:05:08;12.13;;;11.50;;
7585;SDS011;12459;42.646;23.292;2023-04-24T21:35:12;13.77;;;13.07;;
7585;SDS011;12459;42.646;23.292;2023-04-24T21:50:14;11.97;;;11.37;;
7585;SDS011;12459;42.646;23.292;2023-04-24T22:20:19;14.57;;;13.83;;
7585;SDS011;12459;42.646;23.292;2023-04-24T22:35:21;12.50;;;11.83;;
7585;SDS011;12459;42.646;23.292;2023-04-24T23:06:53;14.27;;;13.57;;
7585;SDS011;12459;42.646;23.292;2023-04-24T23:21:56;13.63;;;12.93;;
7585;SDS011;12459;42.646;23.292;2023-04-24T23:36:58;12.77;;;12.07;;
7585;SDS011;12459;42.646;23.292;2023-04-24T23:52:00;12.57;;;11.87;;
